Time;durP1;ratioP1;P1;durP2;ratioP2;P2;SDS_P1;SDS_P2;PMS_P1;PMS_P2;Temp;Humidity;BMP_temperature;BMP_pressure;BME280_temperature;BME280_humidity;BME280_pressure;Samples;Min_cycle;Max_cycle;Signal;HPM_P1;HPM_P2
2022/03/01 00:01:42;;;;;;;;;;;;;;;-2.65;100.00;99898.06;10301790;28;19925;-82
2022/03/01 00:06:43;;;;;;;;;;;;;;;-2.63;100.00;99899.50;10311773;28;19930;-83
2022/03/01 00:11:43;;;;;;;;;;;;;;;-2.68;100.00;99898.47;10308326;28;19926;-81
2022/03/01 00:16:48;;;;;;;;;;;;;;;-2.71;100.00;99896.25;10284805;28;19927;-81
2022/03/01 00:21:49;;;;;;;;;;;;;;;-2.72;100.00;99895.44;10243497;28;19931;-80
2022/03/01 00:26:50;;;;;;;;;;;;;;;-2.81;100.00;99888.72;10340276;28;19925;-84
2022/03/01 00:31:51;;;;;;;;;;;;;;;-2.73;100.00;99890.38;10353088;28;19925;-81
2022/03/01 00:36:51;;;;;;;;;;;;;;;-2.81;100.00;99895.81;10203694;28;19927;-83
2022/03/01 00:41:52;;;;;;;;;;;;;;;-2.68;100.00;99891.41;10293414;28;19931;-83
2022/03/01 00:46:52;;;;;;;;;;;;;;;-2.66;100.00;99891.19;10360360;28;19917;-81
2022/03/01 00:51:52;;;;;;;;;;;;;;;-2.77;100.00;99878.63;10316805;28;19966;-84
2022/03/01 00:56:53;;;;;;;;;;;;;;;-2.64;100.00;99879.50;10309093;28;19941;-81
2022/03/01 01:01:55;;;;;;;;;;;;;;;-2.65;100.00;99875.25;10264414;28;19970;-78
2022/03/01 01:06:56;;;;;;;;;;;;;;;-2.63;100.00;99881.13;10301077;28;20080;-79
2022/03/01 01:11:57;;;;;;;;;;;;;;;-2.76;100.00;99870.53;10202980;28;19966;-79
2022/03/01 01:16:58;;;;;;;;;;;;;;;-2.71;100.00;99872.59;10260696;28;19942;-80
2022/03/01 01:27:18;;;;;;;;;;;;;;;-2.86;100.00;99862.22;10325104;28;20024;-82
2022/03/01 01:32:19;;;;;;;;;;;;;;;-2.99;100.00;99859.56;10319851;28;19953;-84
2022/03/01 01:37:20;;;;;;;;;;;;;;;-3.09;100.00;99862.56;10351954;28;20008;-81
2022/03/01 01:42:21;;;;;;;;;;;;;;;-3.15;100.00;99861.50;10287347;28;19928;-81
2022/03/01 01:47:55;;;;;;;;;;;;;;;-3.21;100.00;99869.34;10294233;28;20038;-82
2022/03/01 01:52:55;;;;;;;;;;;;;;;-3.19;100.00;99862.91;10208000;28;19934;-81
2022/03/01 01:57:59;;;;;;;;;;;;;;;-3.05;100.00;99866.41;10266628;28;19972;-81
2022/03/01 02:03:02;;;;;;;;;;;;;;;-3.17;100.00;99862.72;10228872;28;19927;-81
2022/03/01 02:08:02;;;;;;;;;;;;;;;-3.25;100.00;99862.88;10272693;28;19927;-81
2022/03/01 02:13:05;;;;;;;;;;;;;;;-3.34;100.00;99856.97;10206544;28;19942;-81
2022/03/01 02:18:08;;;;;;;;;;;;;;;-3.44;100.00;99859.13;10275389;28;20034;-80
2022/03/01 02:23:11;;;;;;;;;;;;;;;-3.48;100.00;99850.81;10243141;28;19931;-81
2022/03/01 02:28:12;;;;;;;;;;;;;;;-3.57;100.00;99859.03;10339006;28;19931;-78
2022/03/01 02:33:13;;;;;;;;;;;;;;;-3.56;100.00;99848.38;10307713;28;19949;-82
2022/03/01 02:38:15;;;;;;;;;;;;;;;-3.61;100.00;99845.50;10274881;28;19985;-81
2022/03/01 02:43:16;;;;;;;;;;;;;;;-3.66;100.00;99847.06;10253174;28;19933;-85
2022/03/01 02:48:17;;;;;;;;;;;;;;;-3.72;100.00;99843.41;10294631;28;19937;-82
2022/03/01 02:53:20;;;;;;;;;;;;;;;-3.78;100.00;99844.16;10338665;28;20006;-82
2022/03/01 02:58:22;;;;;;;;;;;;;;;-3.83;100.00;99839.50;10214365;28;19933;-78
2022/03/01 03:03:23;;;;;;;;;;;;;;;-3.81;100.00;99834.06;10273137;28;19986;-79
2022/03/01 03:08:23;;;;;;;;;;;;;;;-3.76;100.00;99844.78;10213947;28;20016;-82
2022/03/01 03:13:24;;;;;;;;;;;;;;;-3.91;100.00;99849.34;10277899;28;20005;-80
2022/03/01 03:18:24;;;;;;;;;;;;;;;-4.04;100.00;99845.59;10327994;28;19942;-81
2022/03/01 03:23:25;;;;;;;;;;;;;;;-4.16;100.00;99849.72;10282013;28;19926;-81
2022/03/01 03:28:25;;;;;;;;;;;;;;;-4.23;100.00;99842.81;10226976;28;19934;-79
2022/03/01 03:33:27;;;;;;;;;;;;;;;-4.41;100.00;99848.47;10290989;28;19929;-83
2022/03/01 03:38:28;;;;;;;;;;;;;;;-4.49;100.00;99838.94;10278744;28;19931;-83
2022/03/01 03:43:32;;;;;;;;;;;;;;;-4.63;100.00;99842.44;10254933;28;19929;-81
2022/03/01 03:48:32;;;;;;;;;;;;;;;-4.58;100.00;99842.66;10241167;28;20269;-80
2022/03/01 03:53:34;;;;;;;;;;;;;;;-4.53;100.00;99837.69;10286705;28;19950;-82
2022/03/01 03:58:36;;;;;;;;;;;;;;;-4.53;100.00;99832.47;10285525;28;19921;-84
2022/03/01 04:03:37;;;;;;;;;;;;;;;-4.55;100.00;99838.88;10329208;28;19925;-81
2022/03/01 04:08:39;;;;;;;;;;;;;;;-4.66;100.00;99837.56;10296984;28;19921;-86
2022/03/01 04:13:41;;;;;;;;;;;;;;;-4.78;100.00;99839.84;10398245;28;19925;-82
2022/03/01 04:18:42;;;;;;;;;;;;;;;-4.91;100.00;99850.19;10295467;28;19934;-85
2022/03/01 04:24:05;;;;;;;;;;;;;;;-4.89;100.00;99859.47;10298822;28;19990;-82
2022/03/01 04:29:06;;;;;;;;;;;;;;;-4.81;100.00;99855.13;10335279;28;20003;-83
2022/03/01 04:34:08;;;;;;;;;;;;;;;-4.62;100.00;99854.53;10200152;28;20014;-82
2022/03/01 04:39:11;;;;;;;;;;;;;;;-4.74;100.00;99854.22;10307800;28;19927;-81
2022/03/01 04:44:12;;;;;;;;;;;;;;;-4.75;100.00;99859.63;10276255;28;19999;-80
2022/03/01 04:49:13;;;;;;;;;;;;;;;-4.82;100.00;99853.50;10210449;28;20358;-78
2022/03/01 04:54:14;;;;;;;;;;;;;;;-4.64;100.00;99852.09;10359089;28;20016;-81
2022/03/01 04:59:38;;;;;;;;;;;;;;;-4.61;100.00;99841.25;10280820;28;19981;-83
2022/03/01 05:04:42;;;;;;;;;;;;;;;-4.60;100.00;99840.25;10213807;28;19931;-82
2022/03/01 05:09:44;;;;;;;;;;;;;;;-4.76;100.00;99844.91;10294675;28;20473;-81
2022/03/01 05:14:45;;;;;;;;;;;;;;;-4.94;100.00;99840.91;10218746;28;19935;-79
2022/03/01 05:19:47;;;;;;;;;;;;;;;-4.92;100.00;99838.09;10309846;23;19999;-83
2022/03/01 05:24:50;;;;;;;;;;;;;;;-4.96;100.00;99842.88;10355738;28;20327;-82
2022/03/01 05:29:51;;;;;;;;;;;;;;;-4.89;100.00;99840.34;10355448;28;19994;-83
2022/03/01 05:34:53;;;;;;;;;;;;;;;-4.82;100.00;99846.47;10340535;28;19977;-79
2022/03/01 05:39:55;;;;;;;;;;;;;;;-4.66;100.00;99856.72;10327067;28;19937;-81
2022/03/01 05:44:56;;;;;;;;;;;;;;;-4.63;100.00;99853.72;10323213;28;19926;-81
2022/03/01 05:49:58;;;;;;;;;;;;;;;-4.63;100.00;99845.06;10311391;28;19957;-83
2022/03/01 05:54:58;;;;;;;;;;;;;;;-4.54;100.00;99858.84;10307062;28;20222;-80
2022/03/01 05:59:59;;;;;;;;;;;;;;;-4.45;100.00;99861.16;10315705;28;19961;-80
2022/03/01 06:05:03;;;;;;;;;;;;;;;-4.41;100.00;99857.16;10333693;28;19937;-80
2022/03/01 06:10:04;;;;;;;;;;;;;;;-4.49;100.00;99859.09;10357307;28;19936;-81
2022/03/01 06:15:05;;;;;;;;;;;;;;;-4.40;100.00;99857.97;10341712;28;19929;-81
2022/03/01 06:20:07;;;;;;;;;;;;;;;-4.31;100.00;99856.84;10311913;28;19962;-80
2022/03/01 06:25:10;;;;;;;;;;;;;;;-4.19;100.00;99860.59;10313143;28;19933;-78
2022/03/01 06:30:12;;;;;;;;;;;;;;;-4.09;100.00;99871.56;10293349;28;19930;-80
2022/03/01 06:35:48;;;;;;;;;;;;;;;-3.94;100.00;99868.03;10273546;28;19930;-82
2022/03/01 06:41:06;;;;;;;;;;;;;;;-3.77;100.00;99872.03;10280792;28;19948;-82
2022/03/01 06:46:12;;;;;;;;;;;;;;;-3.59;100.00;99877.59;10284924;28;19930;-83
2022/03/01 06:51:19;;;;;;;;;;;;;;;-3.42;100.00;99883.38;10301052;28;19981;-84
2022/03/01 06:56:24;;;;;;;;;;;;;;;-3.21;100.00;99878.03;10288206;28;19933;-82
2022/03/01 07:01:26;;;;;;;;;;;;;;;-2.90;100.00;99872.31;10302317;28;20021;-81
2022/03/01 07:06:27;;;;;;;;;;;;;;;-2.38;100.00;99886.66;10295296;28;19977;-84
2022/03/01 07:11:28;;;;;;;;;;;;;;;-2.24;100.00;99870.88;10306460;28;19926;-84
2022/03/01 07:16:30;;;;;;;;;;;;;;;-2.24;100.00;99882.22;10308988;28;19933;-79
2022/03/01 07:21:31;;;;;;;;;;;;;;;-2.07;100.00;99875.56;10307024;28;19936;-78
2022/03/01 07:26:33;;;;;;;;;;;;;;;-1.53;100.00;99877.16;10310998;28;19937;-80
2022/03/01 07:31:34;;;;;;;;;;;;;;;-1.38;98.52;99876.09;10316220;28;19937;-79
2022/03/01 07:36:35;;;;;;;;;;;;;;;-1.06;100.00;99883.13;10325988;28;19934;-80
2022/03/01 07:41:35;;;;;;;;;;;;;;;-0.82;96.30;99878.16;10280541;28;19977;-81
2022/03/01 07:46:36;;;;;;;;;;;;;;;-0.50;95.28;99879.84;10316907;28;19934;-81
2022/03/01 07:51:36;;;;;;;;;;;;;;;-0.53;91.11;99882.91;10307438;28;20309;-81
2022/03/01 07:56:39;;;;;;;;;;;;;;;-0.16;91.92;99885.75;10320753;28;19930;-83
2022/03/01 08:01:44;;;;;;;;;;;;;;;-0.54;89.67;99883.13;10288081;28;20009;-80
2022/03/01 08:06:45;;;;;;;;;;;;;;;-0.30;84.91;99880.53;10308685;28;19937;-81
2022/03/01 08:11:45;;;;;;;;;;;;;;;0.04;88.13;99873.22;10272215;28;19940;-79
2022/03/01 08:16:45;;;;;;;;;;;;;;;-0.08;80.85;99873.09;10291290;28;19988;-82
2022/03/01 08:21:47;;;;;;;;;;;;;;;0.12;81.56;99872.94;10274499;28;19940;-79
2022/03/01 08:26:49;;;;;;;;;;;;;;;0.39;77.92;99870.09;10299358;28;19941;-80
2022/03/01 08:31:50;;;;;;;;;;;;;;;0.44;74.17;99870.22;10298172;28;19941;-80
2022/03/01 08:37:13;;;;;;;;;;;;;;;0.38;74.13;99868.47;10252333;28;19930;-80
2022/03/01 08:42:15;;;;;;;;;;;;;;;0.77;74.48;99867.28;10278081;28;19960;-81
2022/03/01 08:47:16;;;;;;;;;;;;;;;1.03;73.56;99866.16;10267755;28;20000;-80
2022/03/01 08:52:17;;;;;;;;;;;;;;;0.95;74.16;99861.97;10297194;28;19934;-79
2022/03/01 08:57:17;;;;;;;;;;;;;;;1.02;70.48;99857.44;10281105;28;20023;-80
2022/03/01 09:02:19;;;;;;;;;;;;;;;1.21;68.20;99850.28;10294317;28;19961;-80
2022/03/01 09:07:20;;;;;;;;;;;;;;;1.35;68.01;99835.03;10287331;28;19942;-82
2022/03/01 09:12:20;;;;;;;;;;;;;;;1.24;67.15;99831.31;10301744;28;19926;-79
2022/03/01 09:17:20;;;;;;;;;;;;;;;1.65;68.37;99827.09;10268456;28;20008;-80
2022/03/01 09:22:21;;;;;;;;;;;;;;;1.66;64.42;99826.88;10284442;28;19941;-80
2022/03/01 09:27:22;;;;;;;;;;;;;;;2.14;61.86;99830.41;10272677;28;19934;-79
2022/03/01 09:32:22;;;;;;;;;;;;;;;2.07;66.11;99819.09;10256379;28;19937;-78
2022/03/01 09:37:23;;;;;;;;;;;;;;;1.81;64.25;99821.13;10263191;28;20437;-78
2022/03/01 09:42:26;;;;;;;;;;;;;;;2.21;63.09;99805.41;10286825;28;19934;-80
2022/03/01 09:47:26;;;;;;;;;;;;;;;2.28;61.66;99805.28;10275730;28;19990;-79
2022/03/01 09:52:28;;;;;;;;;;;;;;;2.21;62.79;99794.81;10293049;28;20007;-79
2022/03/01 09:57:28;;;;;;;;;;;;;;;2.47;62.11;99798.00;10299156;28;19969;-80
2022/03/01 10:02:37;;;;;;;;;;;;;;;2.81;61.21;99802.44;10296120;28;19930;-80
2022/03/01 10:07:48;;;;;;;;;;;;;;;2.62;61.17;99792.22;10294236;28;19937;-78
2022/03/01 10:12:54;;;;;;;;;;;;;;;2.66;58.47;99794.19;10304553;28;20037;-78
2022/03/01 10:17:55;;;;;;;;;;;;;;;2.93;60.04;99785.72;10314702;28;19933;-79
2022/03/01 10:22:57;;;;;;;;;;;;;;;3.14;60.81;99777.91;10295442;28;19934;-79
2022/03/01 10:27:58;;;;;;;;;;;;;;;3.08;56.47;99770.06;10285568;28;19954;-79
2022/03/01 10:33:19;;;;;;;;;;;;;;;3.21;58.07;99756.53;10264631;28;20684;-84
2022/03/01 10:38:24;;;;;;;;;;;;;;;3.66;54.12;99753.06;10269793;28;19926;-78
2022/03/01 10:43:26;;;;;;;;;;;;;;;4.03;52.20;99748.06;10283400;28;19937;-78
2022/03/01 10:48:31;;;;;;;;;;;;;;;3.99;54.33;99733.63;10258847;28;19934;-78
2022/03/01 10:53:41;;;;;;;;;;;;;;;3.80;53.71;99726.97;10274192;28;20417;-78
2022/03/01 10:58:43;;;;;;;;;;;;;;;4.60;52.62;99717.69;10263909;28;19941;-78
2022/03/01 11:03:48;;;;;;;;;;;;;;;4.81;50.77;99707.03;10273071;28;19926;-77
2022/03/01 11:08:49;;;;;;;;;;;;;;;5.41;48.66;99702.56;10279709;28;20297;-78
2022/03/01 11:13:49;;;;;;;;;;;;;;;5.66;47.35;99689.41;10261113;28;19930;-78
2022/03/01 11:19:00;;;;;;;;;;;;;;;6.48;51.10;99684.56;10281244;28;20388;-80
2022/03/01 11:24:01;;;;;;;;;;;;;;;6.31;46.96;99683.94;10252596;28;19941;-81
2022/03/01 11:29:07;;;;;;;;;;;;;;;6.43;42.71;99663.22;10278249;28;19926;-79
2022/03/01 11:34:13;;;;;;;;;;;;;;;6.75;42.54;99650.50;10290577;28;20293;-80
2022/03/01 11:39:15;;;;;;;;;;;;;;;7.06;47.55;99647.88;10276888;28;19965;-81
2022/03/01 11:44:23;;;;;;;;;;;;;;;7.14;41.92;99642.00;10297553;28;20088;-80
2022/03/01 11:49:31;;;;;;;;;;;;;;;7.07;42.27;99630.78;10293615;28;20405;-79
2022/03/01 11:54:34;;;;;;;;;;;;;;;7.29;42.53;99633.19;10298669;28;19930;-80
2022/03/01 11:59:37;;;;;;;;;;;;;;;7.57;39.87;99623.81;10281612;28;19954;-81
2022/03/01 12:04:47;;;;;;;;;;;;;;;7.81;41.53;99624.03;10298944;28;19926;-83
2022/03/01 12:10:02;;;;;;;;;;;;;;;7.73;38.15;99616.56;10303204;28;19941;-81
2022/03/01 12:15:04;;;;;;;;;;;;;;;8.09;38.64;99618.06;10290802;28;19926;-80
2022/03/01 12:20:07;;;;;;;;;;;;;;;8.24;38.55;99604.63;10287612;28;19953;-80
2022/03/01 12:25:09;;;;;;;;;;;;;;;8.63;35.87;99605.81;10305502;28;19934;-80
2022/03/01 12:30:10;;;;;;;;;;;;;;;9.83;32.70;99604.22;10312571;28;19930;-79
2022/03/01 12:35:11;;;;;;;;;;;;;;;9.36;33.19;99598.53;10306122;28;19958;-79
2022/03/01 12:40:12;;;;;;;;;;;;;;;9.39;31.25;99586.44;10258078;28;19934;-81
2022/03/01 12:45:15;;;;;;;;;;;;;;;10.09;33.11;99581.41;10315338;28;19940;-79
2022/03/01 12:50:18;;;;;;;;;;;;;;;9.83;34.68;99580.09;10315965;28;19933;-81
2022/03/01 12:55:19;;;;;;;;;;;;;;;10.45;30.23;99576.38;10321424;28;19945;-80
2022/03/01 13:00:20;;;;;;;;;;;;;;;11.47;30.73;99573.97;10311051;28;19934;-79
2022/03/01 13:05:24;;;;;;;;;;;;;;;11.48;30.85;99570.97;10263735;28;20000;-80
2022/03/01 13:10:28;;;;;;;;;;;;;;;11.49;32.32;99563.69;10295992;28;19937;-80
2022/03/01 13:15:29;;;;;;;;;;;;;;;12.18;27.82;99557.25;10268495;28;19937;-81
2022/03/01 13:20:30;;;;;;;;;;;;;;;11.28;28.36;99553.31;10305711;28;20247;-82
2022/03/01 13:25:34;;;;;;;;;;;;;;;11.78;27.11;99545.38;10305844;28;20041;-80
2022/03/01 13:30:35;;;;;;;;;;;;;;;13.12;26.02;99546.72;10306269;28;19930;-81
2022/03/01 13:35:35;;;;;;;;;;;;;;;12.39;29.10;99533.38;10279374;28;19934;-80
2022/03/01 13:40:36;;;;;;;;;;;;;;;12.60;27.10;99524.81;10307210;28;19925;-80
2022/03/01 13:45:39;;;;;;;;;;;;;;;12.60;24.50;99522.13;10293879;28;20061;-81
2022/03/01 13:50:40;;;;;;;;;;;;;;;12.51;25.21;99513.97;10301666;28;19930;-79
2022/03/01 13:55:43;;;;;;;;;;;;;;;11.25;26.39;99505.53;10251377;28;19973;-79
2022/03/01 14:00:45;;;;;;;;;;;;;;;9.98;28.34;99508.31;10275801;28;19926;-80
2022/03/01 14:05:59;;;;;;;;;;;;;;;9.90;27.77;99495.53;10289189;28;20433;-79
2022/03/01 14:11:00;;;;;;;;;;;;;;;9.06;27.75;99500.53;10286882;28;19930;-79
2022/03/01 14:16:06;;;;;;;;;;;;;;;8.78;30.05;99485.25;10305461;28;20621;-76
2022/03/01 14:21:10;;;;;;;;;;;;;;;8.92;29.17;99480.81;10288174;28;20398;-79
2022/03/01 14:26:11;;;;;;;;;;;;;;;8.93;30.09;99479.75;10299500;28;19945;-81
2022/03/01 14:31:12;;;;;;;;;;;;;;;8.07;30.38;99467.81;10298766;28;19926;-81
2022/03/01 14:36:16;;;;;;;;;;;;;;;8.10;29.82;99461.91;10285834;28;19934;-79
2022/03/01 14:41:19;;;;;;;;;;;;;;;7.60;30.04;99469.13;10285070;28;19926;-79
2022/03/01 14:46:20;;;;;;;;;;;;;;;7.61;33.59;99465.38;10281678;28;19933;-78
2022/03/01 14:51:21;;;;;;;;;;;;;;;7.55;31.88;99468.34;10293696;28;20386;-78
2022/03/01 14:56:21;;;;;;;;;;;;;;;7.39;35.23;99467.59;10263155;28;19927;-79
2022/03/01 15:01:21;;;;;;;;;;;;;;;7.15;33.20;99470.06;10281327;28;19927;-77
2022/03/01 15:06:22;;;;;;;;;;;;;;;7.35;31.67;99462.00;10267135;28;21234;-79
2022/03/01 15:11:22;;;;;;;;;;;;;;;7.32;33.77;99457.22;10289794;28;19934;-79
2022/03/01 15:16:23;;;;;;;;;;;;;;;7.25;33.15;99458.56;10322623;28;21030;-80
2022/03/01 15:21:24;;;;;;;;;;;;;;;6.99;34.41;99453.28;10287787;28;19937;-80
2022/03/01 15:26:25;;;;;;;;;;;;;;;6.91;34.99;99450.38;10322358;28;19926;-79
2022/03/01 15:31:25;;;;;;;;;;;;;;;6.71;34.41;99454.66;10318235;28;19930;-82
2022/03/01 15:36:26;;;;;;;;;;;;;;;6.68;34.61;99443.75;10346172;28;19945;-80
2022/03/01 15:41:26;;;;;;;;;;;;;;;6.81;33.23;99445.84;10335999;28;19926;-79
2022/03/01 15:46:27;;;;;;;;;;;;;;;6.68;33.84;99444.53;10319007;28;19933;-79
2022/03/01 15:51:27;;;;;;;;;;;;;;;6.55;34.08;99450.41;10299879;28;19934;-78
2022/03/01 15:56:29;;;;;;;;;;;;;;;6.14;34.23;99449.59;10309341;28;20027;-79
2022/03/01 16:01:31;;;;;;;;;;;;;;;5.97;35.51;99453.28;10291789;28;19946;-79
2022/03/01 16:06:33;;;;;;;;;;;;;;;5.87;36.28;99447.91;10293108;28;19926;-81
2022/03/01 16:11:33;;;;;;;;;;;;;;;5.80;36.03;99443.88;10297433;28;19930;-79
2022/03/01 16:16:33;;;;;;;;;;;;;;;5.61;35.93;99446.22;10285320;28;19930;-80
2022/03/01 16:21:34;;;;;;;;;;;;;;;5.36;37.88;99453.06;10275909;28;19973;-80
2022/03/01 16:26:35;;;;;;;;;;;;;;;5.35;37.79;99453.31;10289807;28;19937;-80
2022/03/01 16:31:35;;;;;;;;;;;;;;;5.13;37.47;99456.94;10263376;28;20408;-77
2022/03/01 16:36:35;;;;;;;;;;;;;;;4.97;36.69;99465.88;10287120;28;19937;-81
2022/03/01 16:41:36;;;;;;;;;;;;;;;4.78;37.74;99462.84;10280638;28;19934;-79
2022/03/01 16:46:37;;;;;;;;;;;;;;;4.60;38.37;99467.75;10302202;28;19930;-81
2022/03/01 16:51:38;;;;;;;;;;;;;;;4.36;39.50;99468.09;10261059;28;20016;-78
2022/03/01 16:56:40;;;;;;;;;;;;;;;4.21;39.44;99471.44;10256499;28;20498;-77
2022/03/01 17:01:41;;;;;;;;;;;;;;;4.06;39.27;99473.94;10266436;28;19958;-78
2022/03/01 17:06:41;;;;;;;;;;;;;;;3.89;39.53;99483.84;10263593;28;19949;-78
2022/03/01 17:11:41;;;;;;;;;;;;;;;3.71;40.43;99477.78;10293450;28;19926;-77
2022/03/01 17:16:42;;;;;;;;;;;;;;;3.53;41.97;99477.31;10266942;28;19931;-77
2022/03/01 17:21:42;;;;;;;;;;;;;;;3.32;42.31;99487.69;10269692;28;20290;-79
2022/03/01 17:26:44;;;;;;;;;;;;;;;3.19;43.33;99490.66;10262539;28;20420;-81
2022/03/01 17:31:44;;;;;;;;;;;;;;;3.01;45.46;99496.25;10287100;28;19936;-78
2022/03/01 17:36:45;;;;;;;;;;;;;;;2.87;47.17;99487.03;10261740;28;20003;-78
2022/03/01 17:41:46;;;;;;;;;;;;;;;2.70;47.65;99487.03;10285875;28;20017;-79
2022/03/01 17:46:46;;;;;;;;;;;;;;;2.46;47.88;99481.09;10269615;28;19926;-76
2022/03/01 17:51:47;;;;;;;;;;;;;;;2.26;50.96;99481.53;10277371;28;19930;-78
2022/03/01 17:56:47;;;;;;;;;;;;;;;2.08;51.75;99474.59;10291804;28;20274;-78
2022/03/01 18:01:47;;;;;;;;;;;;;;;1.98;52.76;99475.22;10266302;28;19957;-77
2022/03/01 18:06:48;;;;;;;;;;;;;;;1.80;55.27;99478.06;10282617;28;19930;-78
2022/03/01 18:11:49;;;;;;;;;;;;;;;1.57;56.16;99470.22;10296236;28;20862;-79
2022/03/01 18:16:50;;;;;;;;;;;;;;;1.27;60.73;99467.75;10254254;28;19933;-77
2022/03/01 18:21:51;;;;;;;;;;;;;;;1.04;60.43;99472.03;10274938;28;20029;-78
2022/03/01 18:26:51;;;;;;;;;;;;;;;0.89;59.07;99470.88;10282283;28;19993;-77
2022/03/01 18:31:52;;;;;;;;;;;;;;;0.85;59.88;99475.84;10253390;28;19934;-78
2022/03/01 18:36:52;;;;;;;;;;;;;;;0.80;63.29;99479.16;10306887;28;20040;-77
2022/03/01 18:41:53;;;;;;;;;;;;;;;0.55;73.92;99487.31;10284612;28;19941;-80
2022/03/01 18:46:54;;;;;;;;;;;;;;;0.39;75.98;99485.31;10291187;28;19937;-82
2022/03/01 18:51:55;;;;;;;;;;;;;;;0.09;78.17;99477.44;10284694;28;20046;-77
2022/03/01 18:56:56;;;;;;;;;;;;;;;-0.06;85.02;99484.97;10286191;28;20038;-77
2022/03/01 19:01:57;;;;;;;;;;;;;;;-0.32;87.09;99473.72;10278636;28;19977;-77
2022/03/01 19:06:58;;;;;;;;;;;;;;;-0.37;94.28;99467.50;10280465;28;20068;-77
2022/03/01 19:11:59;;;;;;;;;;;;;;;-0.45;89.88;99481.00;10273811;28;19940;-77
2022/03/01 19:17:01;;;;;;;;;;;;;;;-0.40;80.27;99475.84;10286170;28;19994;-77
2022/03/01 19:22:03;;;;;;;;;;;;;;;-0.44;79.54;99474.69;10273920;28;19933;-78
2022/03/01 19:27:04;;;;;;;;;;;;;;;-0.49;86.33;99477.19;10277841;28;19930;-78
2022/03/01 19:32:06;;;;;;;;;;;;;;;-0.54;84.64;99479.69;10283079;28;19992;-78
2022/03/01 19:37:06;;;;;;;;;;;;;;;-0.55;88.40;99463.03;10283694;28;20009;-78
2022/03/01 19:42:08;;;;;;;;;;;;;;;-0.63;87.95;99466.00;10285921;28;19930;-78
2022/03/01 19:47:09;;;;;;;;;;;;;;;-0.52;86.95;99464.44;10288179;28;19941;-80
2022/03/01 19:52:09;;;;;;;;;;;;;;;-0.42;84.56;99470.81;10268441;28;19968;-77
2022/03/01 19:57:09;;;;;;;;;;;;;;;-0.49;84.98;99477.19;10289891;28;19936;-77
2022/03/01 20:02:10;;;;;;;;;;;;;;;-0.61;93.17;99479.75;10271017;28;19937;-77
2022/03/01 20:07:12;;;;;;;;;;;;;;;-0.72;94.26;99480.50;10269604;28;19933;-78
2022/03/01 20:12:12;;;;;;;;;;;;;;;-0.84;93.08;99476.97;10272065;28;19931;-76
2022/03/01 20:17:17;;;;;;;;;;;;;;;-0.94;96.05;99470.38;10281635;28;19934;-79
2022/03/01 20:22:18;;;;;;;;;;;;;;;-1.05;99.04;99462.38;10285352;28;20390;-79
2022/03/01 20:27:19;;;;;;;;;;;;;;;-1.24;97.57;99461.56;10269465;28;20032;-78
2022/03/01 20:32:20;;;;;;;;;;;;;;;-1.32;99.23;99465.28;10289237;28;19973;-79
2022/03/01 20:37:20;;;;;;;;;;;;;;;-1.39;100.00;99474.25;10282207;28;19961;-78
2022/03/01 20:42:20;;;;;;;;;;;;;;;-1.54;100.00;99471.94;10268908;28;19949;-78
2022/03/01 20:47:21;;;;;;;;;;;;;;;-1.76;100.00;99456.50;10267970;28;20742;-79
2022/03/01 20:52:21;;;;;;;;;;;;;;;-1.83;100.00;99449.66;10271347;28;19934;-78
2022/03/01 20:57:22;;;;;;;;;;;;;;;-1.92;100.00;99454.41;10259338;28;19936;-77
2022/03/01 21:02:22;;;;;;;;;;;;;;;-1.94;100.00;99468.78;10270849;28;20020;-82
2022/03/01 21:07:24;;;;;;;;;;;;;;;-1.77;100.00;99469.88;10311498;28;19927;-77
2022/03/01 21:12:24;;;;;;;;;;;;;;;-1.64;100.00;99461.09;10300507;28;20009;-79
2022/03/01 21:17:26;;;;;;;;;;;;;;;-1.73;100.00;99452.66;10292203;28;20440;-80
2022/03/01 21:22:26;;;;;;;;;;;;;;;-1.81;100.00;99458.19;10299916;28;19914;-79
2022/03/01 21:27:27;;;;;;;;;;;;;;;-2.01;100.00;99447.81;10332367;28;20297;-80
2022/03/01 21:32:27;;;;;;;;;;;;;;;-2.14;100.00;99451.28;10282915;28;19950;-77
2022/03/01 21:37:28;;;;;;;;;;;;;;;-2.15;100.00;99448.88;10291178;28;19945;-77
2022/03/01 21:42:28;;;;;;;;;;;;;;;-2.23;100.00;99457.81;10296027;28;19925;-77
2022/03/01 21:47:29;;;;;;;;;;;;;;;-2.07;100.00;99467.03;10306819;28;19958;-78
2022/03/01 21:52:29;;;;;;;;;;;;;;;-1.64;100.00;99475.06;10297686;28;19994;-78
2022/03/01 21:57:30;;;;;;;;;;;;;;;-1.82;100.00;99467.91;10306070;28;19926;-77
2022/03/01 22:02:30;;;;;;;;;;;;;;;-1.89;100.00;99476.84;10266022;28;19930;-77
2022/03/01 22:07:31;;;;;;;;;;;;;;;-1.64;100.00;99477.69;10280646;28;19931;-77
2022/03/01 22:12:31;;;;;;;;;;;;;;;-1.73;100.00;99479.78;10267201;28;19926;-81
2022/03/01 22:17:33;;;;;;;;;;;;;;;-1.79;100.00;99480.63;10258321;28;20017;-76
2022/03/01 22:22:33;;;;;;;;;;;;;;;-2.02;100.00;99491.69;10281047;28;19937;-76
2022/03/01 22:27:34;;;;;;;;;;;;;;;-1.94;100.00;99481.94;10269329;28;19930;-81
2022/03/01 22:32:34;;;;;;;;;;;;;;;-2.12;100.00;99475.56;10276806;28;19926;-76
2022/03/01 22:37:35;;;;;;;;;;;;;;;-2.29;100.00;99474.44;10264142;28;19926;-78
2022/03/01 22:42:35;;;;;;;;;;;;;;;-2.52;100.00;99458.38;10281762;28;19970;-77
2022/03/01 22:47:39;;;;;;;;;;;;;;;-2.62;100.00;99461.44;10270471;28;19930;-77
2022/03/01 22:52:40;;;;;;;;;;;;;;;-2.75;100.00;99459.66;10272978;28;19930;-77
2022/03/01 22:57:40;;;;;;;;;;;;;;;-2.89;100.00;99458.91;10267596;28;19981;-77
2022/03/01 23:02:43;;;;;;;;;;;;;;;-2.87;100.00;99456.06;10272850;28;19931;-77
2022/03/01 23:07:44;;;;;;;;;;;;;;;-2.67;100.00;99450.75;10270659;28;19926;-78
2022/03/01 23:12:46;;;;;;;;;;;;;;;-2.77;100.00;99443.31;10270830;28;19952;-76
2022/03/01 23:17:46;;;;;;;;;;;;;;;-2.86;100.00;99434.84;10282121;28;19941;-77
2022/03/01 23:22:46;;;;;;;;;;;;;;;-2.95;100.00;99435.28;10292740;28;19930;-77
2022/03/01 23:27:47;;;;;;;;;;;;;;;-3.04;100.00;99437.31;10274095;28;19930;-76
2022/03/01 23:32:49;;;;;;;;;;;;;;;-2.95;100.00;99437.91;10279251;28;20428;-76
2022/03/01 23:37:50;;;;;;;;;;;;;;;-2.94;100.00;99424.56;10272507;28;19930;-77
2022/03/01 23:42:50;;;;;;;;;;;;;;;-3.08;100.00;99438.75;10286962;28;19994;-76
2022/03/01 23:47:51;;;;;;;;;;;;;;;-2.77;100.00;99439.88;10270589;28;19926;-79
2022/03/01 23:52:51;;;;;;;;;;;;;;;-2.77;100.00;99443.31;10260111;28;19957;-77
2022/03/01 23:57:51;;;;;;;;;;;;;;;-2.93;100.00;99433.25;10288513;28;20381;-76
